UK Observations

EGVA 280528Z AUTO 04005KT 9000 BR OVC005 14/13 A2949 RMK AO2 SLP988 EGAA 280520Z 08008KT 4000 BR BKN003 BKN006 BKN010 13/12 Q1002 EGAC 280520Z 09005KT 050V130 5000 BR BKN005 BKN007 13/12 Q1001 EGAE 280520Z 10010KT 6000 BKN008 OVC012 15/13 Q1001 EGBB 280520Z 04006KT 8000 -RA OVC004 14/13 Q0999 EGCC 280520Z AUTO 06006KT 9999 -RA BKN038/// //////TCU 12/11 Q1001 TEMPO RA EGDM 280518Z 06006KT 2000 BR OVC002 15/15 Q0998 AMB EGDM 280518Z 06006KT 2000 BR OVC002 15/15 Q0998 AMB EGFF 280520Z AUTO 36004KT 3400 RA OVC016/// //////TCU 15/15 Q0998 EGGD 280520Z AUTO 01005KT 0150 R27/0650 FG VV/// 15/15 Q0998 RERA EGGP 280520Z 06010KT 9999 -RA FEW008 BKN026 13/12 Q1001 EGGW 280520Z AUTO 01007KT 330V040 2900 BR OVC001 14/14 Q0998 EGHH 280520Z 00000KT 2000 -RA BR BKN003 16/15 Q0998 EGHI 280520Z 02004KT 2500 -RADZ BR BKN004 14/13 Q0998 EGJB 280520Z 12005KT 9999 FEW008 SCT035 15/14 Q0998 EGJJ 280520Z 11007KT 9999 FEW004 SCT013 BKN027 15/14 Q0998 TEMPO 3000 RADZ BKN003 EGKB 280520Z 34006KT 2500 -RA BR BKN002 OVC007 14/14 Q0998 EGKK 280520Z 34005KT 310V020 8000 BKN007 16/15 Q0997 EGLC 280520Z AUTO 30005KT 9999 -RA BKN006 BKN010 OVC033 16/15 Q0998 EGLL 280520Z 03004KT 330V060 8000 FEW004 BKN006 15/14 Q0998 NOSIG EGMD 280520Z AUTO 33004KT 1000 -RA FEW004/// SCT008/// BKN020/// 16/16 Q0997 RERA EGNH 280520Z 06014KT 9999 -SHRA FEW013 BKN034 12/11 Q1002 EGNJ 280520Z 04012KT 4000 RA OVC003 12/12 Q1001 EGNM 280520Z 07008KT 010V110 3500 -RADZ BR SCT002 BKN003 10/// Q1002 EGNS 280520Z 08018KT 9999 FEW012 BKN037 13/12 Q1001 NOSIG EGNT 280520Z 09006KT 6000 -DZ SCT006 BKN014 11/11 Q1004 EGNV 280520Z 04008KT 6000 -RA FEW007 BKN020 11/10 Q1004 EGNX 280520Z 04008KT 9000 -RA SCT003 BKN004 13/13 Q1000 RERA EGPB 280520Z 06008KT 9999 SCT020 BKN034 11/06 Q1011 NOSIG EGPC 280520Z AUTO 09012KT 9999 FEW045/// 11/09 Q1009 EGPD 280520Z 08006KT 9999 FEW021 11/09 Q1008 NOSIG EGPE 280520Z 08007KT 9999 FEW018 BKN042 11/09 Q1007 EGPF 280520Z AUTO 06013KT 9999 BKN020 OVC042 12/11 Q1005 EGPH 280520Z 06009KT 9999 BKN006 OVC045 12/11 Q1005 EGPL 280520Z AUTO 06008KT 9999 NCD 12/10 Q1005 EGPM 280520Z 05005KT 9999 FEW018 BKN039 10/05 Q1012 NOSIG EGPN 280520Z 08007KT 9000 VCSH SCT025 BKN046 12/10 Q1006 EGPO 280520Z 09012KT 9999 FEW018 12/10 Q1006 EGSH 280520Z 02011KT 360V060 4000 RA FEW001 BKN004 OVC005 14/13 Q0997 TEMPO -RA EGSS 280520Z AUTO 34006KT 5000 -RADZ BKN003 14/14 Q0998 EGTE 280520Z 32004KT 9999 5000E SCT004 BKN009 15/14 Q0998 EGUL 280506Z AUTO 02008KT 9999 +RA BKN008 OVC025 14/14 A2945 RMK AO2 CIG 007V026 SLP976 EGUL 280507Z AUTO 02008KT 9999 +RA BKN007 OVC025 14/14 A2945 RMK AO2 CIG 007V026 BKN V SCT SLP976 EGUN 280517Z AUTO 02006KT 9999 -RA OVC006 14/14 A2946 RMK AO2 SLP979 KGNC 280515Z AUTO 15009KT 10SM CLR 24/16 A3001 RMK AO2 T02400159 EGCN 280520Z 04009KT 7000 RA BKN004 OVC007 13/12 Q1002 RERA EGNR 280520Z 04004KT 8000 VCSH FEW007 BKN016 13/12 Q1001 EGTK 280520Z 03006KT 4500 OVC003 14/13 Q0999 EGAA 280450Z 09008KT 060V130 4500 BR BKN005 BKN009 13/13 Q1001 EGAE 280450Z 09008KT 6000 BKN008 OVC012 15/14 Q1001 EGBB 280450Z 03005KT 8000 SCT004 OVC007 14/13 Q1000 EGCC 280450Z AUTO 05006KT 9999 -RA OVC035/// //////TCU 12/11 Q1001 TEMPO RA EGDM 280450Z AUTO 06006KT 2400 -DZ OVC001/// 15/15 Q0998 EGDR 280450Z 32007KT 8000 -RA FEW003 SCT005 OVC070 13/13 Q0999 YLO1 EGDY 280450Z 26003KT 1600 RADZ FEW007 OVC013 15/15 Q0998 YLO2 EGFF 280450Z AUTO 32003KT 3600 RA OVC021/// //////TCU 15/15 Q0999 RERA EGGD 280450Z AUTO 36005KT 0100 R27/0350 FG VV/// 15/15 Q0998 EGGP 280450Z 06010KT 9999 -RA FEW015 BKN025 13/12 Q1001 EGGW 280450Z AUTO 02007KT 350V060 0700 R26/0600 FG VV/// 13/13 Q0998 EGHH 280450Z VRB01KT 2000 -RA BR BKN002 16/15 Q0998 EGHI 280450Z 03003KT 2000 -RADZ BR BKN004 15/13 Q0998 EGJB 280450Z 13005KT 9999 FEW008 SCT035 14/14 Q0998 EGJJ 280450Z 11006KT 9999 FEW003 SCT020 14/14 Q0998 TEMPO 3000 RADZ BKN003 EGKK 280450Z 36005KT 6000 BKN006 15/15 Q0997 EGLC 280450Z AUTO VRB03KT 8000 -RA OVC005 16/15 Q0998 EGLL 280450Z AUTO 02004KT 340V060 8000 -RA OVC005 15/14 Q0998 NOSIG EGMC 280450Z 35007KT 6000 -RA FEW004 SCT007 15/13 Q0997 EGMD 280450Z AUTO 33005KT 2300 BR FEW003/// SCT009/// OVC014/// 17/17 Q0997 EGNJ 280450Z 05013KT 4000 RA OVC003 13/12 Q1001 REDZ EGNM 280450Z 06006KT 360V110 1500 -RADZ BR SCT001 BKN002 10/// Q1002 EGNS 280450Z 08016KT 9999 FEW007 SCT010 13/12 Q1001 NOSIG EGNT 280450Z 08008KT 8000 -SHRA SCT007 BKN011 11/11 Q1004 EGNV 280450Z 05008KT 5000 -RADZ SCT005 BKN016 11/10 Q1003 EGNX 280450Z 05010KT 8000 RA SCT003 BKN004 13/13 Q1000 EGOS 280450Z AUTO 04004KT 9000 RA OVC006/// 13/13 Q1000 EGOV 280450Z AUTO 28002KT 9000 BR OVC003/// 14/14 Q0999 EGPA 280450Z AUTO 09009KT 9999 NCD 11/08 Q1010 EGPB 280450Z AUTO 05007KT 9999 FEW032/// OVC042/// 10/06 Q1011 EGPC 280450Z AUTO 09012KT 9999 OVC045/// 11/09 Q1009 EGPD 280450Z 08005KT 9999 FEW026 11/08 Q1008 NOSIG EGPE 280450Z 07005KT 9999 FEW018 SCT042 11/09 Q1007 EGPF 280450Z AUTO 05011KT 9999 FEW011 BKN023 OVC034 12/11 Q1005 EGPH 280450Z 06011KT 9999 FEW008 OVC043 12/11 Q1005 EGPK 280450Z 07007KT 9999 FEW030 12/09 Q1004 EGPL 280450Z AUTO 05008KT 9999 NCD 12/11 Q1005 EGPM 280450Z AUTO 05005KT 9999 OVC030/// 10/05 Q1012 EGPO 280450Z AUTO 09011KT 9999 NCD 12/10 Q1006 EGPU 280450Z AUTO 08009KT 9999 OVC021/// 12/11 Q1003 RERA EGQK 280450Z AUTO 09010KT 9999 FEW040/// OVC045/// 11/08 Q1007 EGQL 280450Z 08012KT 9999 FEW020 SCT035 OVC080 11/10 Q1006 BLU EGQM 280450Z AUTO 07010KT 9999 FEW024/// BKN029/// 12/10 Q1005 EGQS 280450Z 10011KT 9999 FEW022 BKN045 11/07 Q1007 BLU EGSH 280450Z 02011KT 350V050 5000 -RA BKN004 OVC005 15/14 Q0997 RERA TEMPO RA EGSS 280450Z AUTO 35005KT 5000 -DZ SCT003 BKN042 14/14 Q0998 EGTE 280450Z 33004KT 5000 -RADZ BR FEW006 BKN011 15/14 Q0998 EGUB 280450Z 01006KT 4000 BR OVC003 14/14 Q0998 YLO2 EGUL 280503Z AUTO 02008KT 9999 +RA BKN007 OVC025 14/14 A2945 RMK AO2 CIG 007V026 BKN V SCT SLP976 EGUL 280458Z AUTO 02009KT 9000 +RA BR SCT007 OVC024 14/14 A2946 RMK AO2 CIG 024V029 CIG 006 RWY24 SLPNO P0013 T01440144 EGUN 280458Z AUTO 02005KT 9999 RA OVC007 14/14 A2946 RMK AO2 SLP979 P0016 T01430143 EGVA 280458Z AUTO 05006KT 9000 BR OVC006 14/13 A2950 RMK AO2 SLP991 T01410131 EGVN 280450Z 05008KT 4000 BR OVC004 14/13 Q0999 BECMG 5000 BKN005 EGVN 280450Z 05008KT 4000 BR OVC004 14/13 Q0999 YLO2 BECMG 5000 BKN005 YLO1 EGWU 280450Z AUTO 02005KT 9999 // OVC006/// 15/14 Q0998 EGXC 280450Z 04011KT 5000 RA BKN006 BKN015 OVC050 13/12 Q1000 YLO1 EGXT 280450Z AUTO 03011KT 9999 -RA OVC002/// 13/13 Q0999 EGYD 280450Z AUTO 04010KT 6000 // OVC003/// 13/13 Q1000 GBYD 280500Z 26005KT CAVOK 25/24 Q1014 KGNC 280455Z AUTO 15010KT 10SM CLR 24/16 A3001 RMK AO2 T02380156 EGCN 280450Z 04008KT 4000 RA BKN003 OVC007 13/12 Q1002 EGDX 280450Z AUTO 33003KT 6000 -RA BKN024/// 15/15 Q0998 EGOM 280450Z AUTO 07011KT 9999 BKN003/// BKN013/// 10/09 Q1003 REDZ EGOP 280450Z AUTO 35005KT 9999 // BKN023/// 14/13 Q0999 EGPI 280450Z AUTO 08020KT 050V110 9999 FEW023/// BKN031/// 13/11 Q1002 EGUW 280450Z AUTO 02014KT 7000 RA FEW004/// BKN031/// 14/13 Q0997 EGVO 280450Z 01005KT 2000 BR OVC002 14/14 Q0998 AMB EGVP 280450Z AUTO 04006KT 2300 // BKN002/// BKN007/// 15/15 Q0998 EGXE 280450Z 02007KT 9999 -RA OVC014 11/11 Q1003 GRN EGXP 280450Z AUTO 06011KT 5000 // OVC004/// 12/12 Q1000 EGXS 280450Z AUTO 04023KT 4300 // SCT006/// BKN013/// BKN021/// 13/12 Q1001 EGXU 280450Z AUTO 05008KT 7000 // SCT008/// SCT013/// BKN033/// 12/11 Q1002 EGXV 280450Z AUTO 05011KT 6000 RA BKN004/// 12/11 Q1002 EGXW 280450Z 05012KT 7000 RA BKN004 OVC014 12/12 Q1000 YLO2 EGXZ 280450Z AUTO 01005KT 8000 RA BKN011/// 11/11 Q1003 EGYM 280450Z 02012KT 3500 RA SCT006 BKN010 14/14 Q0998 YLO1 EGTK 280450Z 04006KT 4000 OVC003 14/13 Q0999